createdAt,value
2019-05-17T03:54:22.918Z,21.35
2019-05-17T03:56:54.525Z,21.25
2019-05-17T03:59:25.631Z,20.97
2019-05-17T04:01:56.845Z,20.43
2019-05-17T04:04:28.028Z,19.85
2019-05-17T04:06:59.203Z,20.37
2019-05-17T04:09:32.790Z,21.23
2019-05-17T04:12:03.209Z,19.00
2019-05-17T04:14:34.340Z,19.10
2019-05-17T04:17:05.496Z,20.10
2019-05-17T04:19:36.668Z,18.90
2019-05-17T04:22:07.723Z,20.25
2019-05-17T04:24:38.898Z,20.82
2019-05-17T04:27:13.395Z,21.85
2019-05-17T04:29:42.929Z,20.23
2019-05-17T04:32:14.139Z,20.90
2019-05-17T04:34:45.326Z,19.48
2019-05-17T04:37:16.457Z,20.75
2019-05-17T04:39:47.653Z,21.70
2019-05-17T04:42:18.974Z,22.42
2019-05-17T04:44:52.725Z,21.93
2019-05-17T04:50:54.465Z,21.93
2019-05-17T04:53:25.614Z,21.52
2019-05-17T04:55:56.861Z,22.25
2019-05-17T04:58:28.981Z,22.30
2019-05-17T05:01:03.668Z,22.07
2019-05-17T05:03:33.005Z,23.75
2019-05-17T05:06:04.143Z,24.00
2019-05-17T05:08:35.782Z,24.12
2019-05-17T05:11:06.941Z,22.13
2019-05-17T05:13:38.096Z,22.30
2019-05-17T05:16:10.191Z,30.40
2019-05-17T05:18:42.079Z,23.45
2019-05-17T05:21:13.361Z,22.60
2019-05-17T05:23:44.773Z,22.10
2019-05-17T05:26:15.906Z,22.02
2019-05-17T05:28:49.585Z,19.55
2019-05-17T05:31:19.912Z,19.85
2019-05-17T05:33:52.221Z,21.33
2019-05-17T05:36:23.607Z,18.32
2019-05-17T05:38:54.763Z,18.40
2019-05-17T05:41:25.903Z,20.00
2019-05-17T05:43:57.059Z,19.02
2019-05-17T05:46:28.203Z,20.00
2019-05-17T05:49:01.560Z,16.90
2019-05-17T05:51:32.225Z,18.62
2019-05-17T05:54:04.350Z,15.88
2019-05-17T05:56:36.454Z,14.15
2019-05-17T05:59:07.802Z,12.33
2019-05-17T06:01:38.927Z,12.58
2019-05-17T06:04:11.785Z,11.53
2019-05-17T06:06:44.094Z,12.15
2019-05-17T06:09:15.328Z,11.93
2019-05-17T06:11:46.457Z,12.53
2019-05-17T06:14:17.587Z,11.18
2019-05-17T06:16:48.917Z,12.25
2019-05-17T06:19:22.249Z,11.38
2019-05-17T06:21:52.851Z,11.95
2019-05-17T06:24:23.989Z,12.43
2019-05-17T06:26:55.166Z,12.00
2019-05-17T06:29:26.401Z,11.88
2019-05-17T06:31:57.505Z,13.60
2019-05-17T06:34:28.637Z,14.03
2019-05-17T06:37:02.063Z,14.47
2019-05-17T06:39:35.358Z,15.15
2019-05-17T06:42:08.786Z,15.18
2019-05-17T06:44:41.715Z,15.63
2019-05-17T06:47:13.048Z,14.43
2019-05-17T06:49:44.199Z,14.63
2019-05-17T06:52:15.275Z,13.98
2019-05-17T06:54:46.381Z,16.52
2019-05-17T06:57:18.019Z,15.25
2019-05-17T06:59:49.203Z,15.85
2019-05-17T07:02:20.323Z,14.23
2019-05-17T07:04:52.705Z,12.05
2019-05-17T07:07:27.181Z,12.55
2019-05-17T07:10:00.788Z,14.07
2019-05-17T07:12:33.060Z,14.90
2019-05-17T07:15:04.780Z,14.70
2019-05-17T07:17:35.899Z,13.90
2019-05-17T07:20:07.102Z,13.65
2019-05-17T07:22:40.857Z,14.85
2019-05-17T07:25:11.391Z,14.10
2019-05-17T07:27:45.892Z,14.53
2019-05-17T07:30:15.948Z,12.85
2019-05-17T07:32:49.603Z,13.25
2019-05-17T07:35:19.984Z,14.38
2019-05-17T07:37:51.408Z,13.85
2019-05-17T07:40:22.648Z,14.07
2019-05-17T07:43:07.064Z,14.15
2019-05-17T07:45:26.727Z,14.35
2019-05-17T07:48:00.013Z,14.10
2019-05-17T07:50:30.708Z,15.32
2019-05-17T07:53:02.136Z,14.98
2019-05-17T07:55:33.257Z,14.43
2019-05-17T07:58:04.404Z,15.63
2019-05-17T08:00:35.523Z,15.75
2019-05-17T08:03:06.751Z,16.52
2019-05-17T08:05:40.058Z,15.28
2019-05-17T08:08:10.962Z,14.85
2019-05-17T08:10:42.098Z,16.73
2019-05-17T08:13:25.901Z,15.55
2019-05-17T08:15:46.261Z,15.00
2019-05-17T08:18:17.405Z,16.32
2019-05-17T08:20:51.320Z,14.28
2019-05-17T08:23:22.496Z,15.80
2019-05-17T08:25:56.306Z,16.20
2019-05-17T08:28:27.251Z,16.05
2019-05-17T08:31:01.140Z,15.10
2019-05-17T08:33:32.561Z,14.35
2019-05-17T08:36:03.704Z,15.25
2019-05-17T08:38:34.857Z,14.78
2019-05-17T08:41:05.967Z,15.70
2019-05-17T08:43:45.786Z,14.75
2019-05-17T08:46:10.552Z,15.20
2019-05-17T08:48:42.322Z,15.10
2019-05-17T08:51:13.485Z,14.68
2019-05-17T08:53:44.606Z,15.30
2019-05-17T08:56:15.752Z,15.23
2019-05-17T08:58:46.930Z,15.68
2019-05-17T09:01:19.589Z,15.48
2019-05-17T09:03:50.949Z,15.63
2019-05-17T09:06:29.332Z,14.53
2019-05-17T09:09:00.949Z,14.50
2019-05-17T09:11:33.741Z,14.53
2019-05-17T09:14:05.228Z,15.18
2019-05-17T09:16:36.381Z,14.73
2019-05-17T09:19:09.944Z,14.00
2019-05-17T09:21:40.380Z,13.93
2019-05-17T09:24:11.482Z,14.25
2019-05-17T09:26:42.638Z,14.58
2019-05-17T09:29:13.775Z,14.70
2019-05-17T09:31:44.879Z,14.95
2019-05-17T09:34:16.032Z,14.73
2019-05-17T09:36:49.578Z,14.30
2019-05-17T09:39:20.181Z,14.78
2019-05-17T09:41:51.326Z,15.05
2019-05-17T09:44:23.768Z,14.60
2019-05-17T09:46:56.002Z,15.58
2019-05-17T09:49:27.159Z,15.58
2019-05-17T09:52:00.167Z,13.98
2019-05-17T09:54:41.621Z,14.80
2019-05-17T09:57:04.075Z,14.10
2019-05-17T09:59:36.673Z,15.00
2019-05-17T10:02:09.500Z,15.70
2019-05-17T10:04:40.786Z,15.40
2019-05-17T10:07:11.915Z,15.58
2019-05-17T10:09:43.012Z,16.60
2019-05-17T10:12:14.130Z,15.65
2019-05-17T10:14:45.258Z,16.02
2019-05-17T10:17:16.375Z,16.35
2019-05-17T10:19:47.645Z,15.43
2019-05-17T10:22:20.060Z,17.17
2019-05-17T10:24:52.259Z,16.62
2019-05-17T10:27:23.440Z,16.60
2019-05-17T10:29:54.568Z,15.18
2019-05-17T10:32:25.833Z,16.37
2019-05-17T10:34:56.988Z,15.68
2019-05-17T10:37:30.256Z,14.73
2019-05-17T10:40:01.950Z,15.70
2019-05-17T10:42:33.103Z,16.10
2019-05-17T10:45:05.980Z,15.65
2019-05-17T10:47:39.464Z,15.75
2019-05-17T10:50:11.065Z,15.78
2019-05-17T10:52:42.308Z,16.27
2019-05-17T10:55:13.539Z,17.20
2019-05-17T10:57:44.698Z,16.40
2019-05-17T11:00:16.778Z,16.15
2019-05-17T11:02:47.928Z,16.20
2019-05-17T11:05:20.787Z,17.82
2019-05-17T11:07:51.959Z,17.12
2019-05-17T11:10:24.167Z,16.60
2019-05-17T11:12:55.337Z,16.57
2019-05-17T11:15:27.471Z,18.57
2019-05-17T11:17:58.590Z,16.87
2019-05-17T11:20:29.722Z,18.20
2019-05-17T11:23:00.816Z,16.48
2019-05-17T11:25:31.985Z,16.60
2019-05-17T11:28:04.590Z,16.37
2019-05-17T11:30:35.847Z,16.32
2019-05-17T11:33:06.943Z,17.65
2019-05-17T11:35:38.061Z,17.02
2019-05-17T11:38:09.195Z,16.45
2019-05-17T11:40:40.356Z,16.73
2019-05-17T11:43:11.671Z,16.95
2019-05-17T11:45:42.806Z,17.48
2019-05-17T11:48:13.973Z,16.87
2019-05-17T11:50:45.125Z,16.57
2019-05-17T11:53:16.182Z,16.27
2019-05-17T11:55:47.358Z,15.08
2019-05-17T11:58:18.507Z,16.05
2019-05-17T12:00:49.635Z,15.95
2019-05-17T12:03:20.731Z,16.45
2019-05-17T12:05:51.876Z,15.28
2019-05-17T12:08:36.767Z,14.95
2019-05-17T12:11:07.893Z,13.43
2019-05-17T12:13:39.033Z,14.35
2019-05-17T12:16:10.182Z,13.55
2019-05-17T12:18:41.336Z,13.93
2019-05-17T12:21:12.558Z,14.50
2019-05-17T12:23:43.699Z,13.60
2019-05-17T12:26:14.822Z,14.53
2019-05-17T12:28:46.014Z,14.65
2019-05-17T12:31:17.097Z,13.85
2019-05-17T12:33:48.334Z,13.55
2019-05-17T12:36:19.450Z,14.40
2019-05-17T12:38:50.575Z,14.78
2019-05-17T12:41:21.703Z,16.07
2019-05-17T12:43:53.021Z,15.25
2019-05-17T12:46:24.168Z,17.73
2019-05-17T12:48:55.650Z,17.70
2019-05-17T12:51:26.789Z,16.50
2019-05-17T12:53:57.935Z,16.65
2019-05-17T12:56:29.117Z,16.17
2019-05-17T12:59:00.255Z,17.30
2019-05-17T13:01:31.362Z,16.17
2019-05-17T13:04:02.662Z,16.23
2019-05-17T13:06:34.139Z,16.75
2019-05-17T13:09:06.254Z,14.07
2019-05-17T13:11:37.378Z,14.98
2019-05-17T13:14:09.525Z,14.93
2019-05-17T13:16:40.677Z,15.18
2019-05-17T13:19:11.791Z,14.23
2019-05-17T13:21:42.969Z,14.35
2019-05-17T13:24:14.184Z,14.25
2019-05-17T13:26:45.314Z,15.88
2019-05-17T13:29:16.439Z,14.38
2019-05-17T13:31:47.678Z,14.20
2019-05-17T13:34:18.812Z,16.10
2019-05-17T13:36:51.120Z,14.73
2019-05-17T13:39:22.235Z,13.65
2019-05-17T13:41:53.426Z,15.05
2019-05-17T13:44:24.608Z,14.73
2019-05-17T13:46:55.761Z,14.47
2019-05-17T13:49:26.888Z,15.53
2019-05-17T13:51:58.006Z,16.40
2019-05-17T13:54:29.183Z,16.10
2019-05-17T13:57:00.424Z,13.43
2019-05-17T13:59:31.657Z,13.93
2019-05-17T14:02:02.971Z,13.22
2019-05-17T14:04:34.199Z,13.40
2019-05-17T14:07:06.260Z,12.33
2019-05-17T14:09:37.418Z,12.53
2019-05-17T14:12:08.939Z,11.43
2019-05-17T14:14:41.013Z,14.45
2019-05-17T14:17:13.534Z,13.13
2019-05-17T14:19:44.681Z,13.25
2019-05-17T14:22:15.838Z,12.58
2019-05-17T14:24:47.115Z,11.35
2019-05-17T14:27:18.297Z,11.70
2019-05-17T14:29:49.484Z,10.48
2019-05-17T14:32:20.630Z,11.00
2019-05-17T14:34:51.787Z,11.22
2019-05-17T14:37:23.068Z,11.53
2019-05-17T14:39:54.221Z,11.15
2019-05-17T14:42:25.383Z,11.45
2019-05-17T14:44:56.555Z,12.55
2019-05-17T14:47:27.770Z,10.38
2019-05-17T14:49:58.918Z,10.30
2019-05-17T14:52:30.137Z,11.22
2019-05-17T14:55:01.259Z,10.28
2019-05-17T14:57:32.396Z,10.65
2019-05-17T15:00:07.528Z,10.58
2019-05-17T15:02:43.484Z,10.30
2019-05-17T15:05:15.215Z,10.50
2019-05-17T15:07:46.614Z,10.90
2019-05-17T15:10:17.789Z,12.35
2019-05-17T15:12:49.982Z,11.28
2019-05-17T15:15:28.484Z,11.57
2019-05-17T15:17:54.190Z,10.50
2019-05-17T15:20:25.368Z,11.78
2019-05-17T15:22:56.489Z,11.85
2019-05-17T15:25:27.584Z,11.57
2019-05-17T15:27:58.728Z,12.03
2019-05-17T15:30:30.085Z,10.82
2019-05-17T15:33:01.352Z,10.72
2019-05-17T15:35:32.499Z,11.10
2019-05-17T15:38:03.752Z,11.97
2019-05-17T15:40:35.049Z,13.32
2019-05-17T15:43:06.241Z,11.83
2019-05-17T15:45:37.334Z,11.22
2019-05-17T15:48:08.458Z,10.80
2019-05-17T15:50:39.608Z,10.95
2019-05-17T15:53:10.724Z,10.05
2019-05-17T15:55:41.982Z,10.93
2019-05-17T15:58:13.111Z,10.23
2019-05-17T16:00:44.322Z,9.83
2019-05-17T16:03:15.460Z,9.70
2019-05-17T16:05:46.695Z,9.55
2019-05-17T16:08:18.060Z,10.82
2019-05-17T16:10:49.245Z,10.00
2019-05-17T16:13:20.558Z,10.70
2019-05-17T16:15:51.967Z,10.23
2019-05-17T16:18:24.321Z,10.43
2019-05-17T16:20:55.426Z,9.98
2019-05-17T16:23:26.612Z,8.75
2019-05-17T16:25:57.766Z,10.80
2019-05-17T16:28:29.011Z,10.03
2019-05-17T16:31:03.404Z,8.88
2019-05-17T16:33:36.109Z,10.08
2019-05-17T16:36:07.288Z,9.95
2019-05-17T16:38:38.931Z,10.08
2019-05-17T16:41:11.613Z,10.85
2019-05-17T16:43:42.742Z,9.20
2019-05-17T16:46:13.929Z,9.50
2019-05-17T16:48:45.236Z,9.55
2019-05-17T16:51:19.719Z,11.28
2019-05-17T16:53:51.587Z,11.48
2019-05-17T16:56:23.588Z,11.95
2019-05-17T16:58:54.811Z,14.15
2019-05-17T17:01:26.676Z,15.15
2019-05-17T17:03:58.953Z,21.65
2019-05-17T17:06:31.909Z,22.45
2019-05-17T17:09:03.184Z,15.75
2019-05-17T17:11:35.139Z,12.53
2019-05-17T17:14:09.521Z,12.30
2019-05-17T17:16:44.577Z,10.43
2019-05-17T17:19:19.465Z,11.08
